Terminal Aerodrome Forecast
Issued by NWS Rapid City, SD

Home | Current Version | Previous Version | Graphics & Text | Print | Product List | Glossary On
Versions: 1 2 3 4 5 6 7 8 9 10 11 12 13 14 15 16 17 18 19 20 21 22 23 24 25 26 27 28 29
000
FTUS43 KUNR 251121
TAFRAP
TAF
KRAP 251121Z 2512/2612 36007KT P6SM SCT004 OVC020
      TEMPO 2512/2514 BKN004
     FM251600 36009KT P6SM BKN022
     FM252000 02011KT P6SM VCSH BKN025
     FM260200 VRB05KT P6SM BKN020=

USA.gov is the U.S. government's official web portal to all federal, state and local government web resources and services.